This is the latest recevied weather packets stored in our database for station/object CA2JAT-13. If no packets are shown the sender has not sent any weather packets the latest 10 day(s).
| Time | Temp. | Humidity | Pressure | Rain* | Wind** | Luminosity | Snow |
|---|---|---|---|---|---|---|---|
| 1778162546 | 15.56° C | 67% | 1022.4 hPa | 0 mm | - | 357 W/m² | - |
| 1778160741 | 13.33° C | 72% | 1022.9 hPa | 0 mm | - | 265 W/m² | - |
| 1778158887 | 10° C | 88% | 1023.9 hPa | 0 mm | - | 171 W/m² | - |
| 1778157083 | 8.89° C | 91% | 1024.1 hPa | 0 mm | - | 124 W/m² | - |
| 1778155278 | 7.22° C | 99% | 1024.2 hPa | 0 mm | - | 12 W/m² | - |
| 1778153475 | 7.78° C | 99% | 1023.8 hPa | 0 mm | - | 0 W/m² | - |
| 1778151670 | 7.78° C | 99% | 1023.8 hPa | 0 mm | - | 0 W/m² | - |
| 1778149866 | 8.33° C | 99% | 1023.3 hPa | 0 mm | - | 0 W/m² | - |
| 1778148062 | 8.89° C | 96% | 1022.9 hPa | 0 mm | - | 0 W/m² | - |
| 1778146258 | 9.44° C | 98% | 1022.5 hPa | 0 mm | - | 0 W/m² | - |
| 1778144454 | 10° C | 99% | 1022.3 hPa | 0 mm | - | 0 W/m² | - |
| 1778142651 | 10° C | 99% | 1022.3 hPa | 0 mm | - | 0 W/m² | - |
| 1778140846 | 10° C | 94% | 1022.2 hPa | 0 mm | - | 0 W/m² | - |
| 1778139043 | 10.56° C | 99% | 1022.5 hPa | 0 mm | - | 0 W/m² | - |
| 1778137240 | 10.56° C | 96% | 1022.5 hPa | 0 mm | - | 0 W/m² | - |
| 1778135435 | 11.67° C | 95% | 1022 hPa | 0 mm | - | 0 W/m² | - |
| 1778133632 | 12.22° C | 93% | 1021.7 hPa | 0 mm | - | 0 W/m² | - |
| 1778131828 | 12.22° C | 90% | 1021.4 hPa | 0 mm | - | 0 W/m² | - |
| 1778130024 | 12.78° C | 87% | 1021.2 hPa | 0 mm | - | 0 W/m² | - |
| 1778128220 | 12.78° C | 87% | 1021.5 hPa | 0 mm | - | 0 W/m² | - |
| 1778126416 | 13.33° C | 84% | 1021.3 hPa | 0 mm | - | 0 W/m² | - |
| 1778124611 | 13.89° C | 78% | 1021.3 hPa | 0 mm | - | 0 W/m² | - |
| 1778123521 | 13.89° C | 77% | 1021.2 hPa | 0 mm | - | 0 W/m² | - |
| 1778119915 | 14.44° C | 75% | 1021.1 hPa | 0 mm | - | 0 W/m² | - |
| 1778118112 | 15° C | 72% | 1020.9 hPa | 0 mm | - | 0 W/m² | - |
* Rain latest hour (hover to see other rain measurements)
** Current wind speed in m/s (hover to see current wind gust speed)